createdAt,value
2017-10-27T00:02:00.208Z,90.63
2017-10-27T00:04:28.510Z,90.58
2017-10-27T00:06:56.791Z,91.40
2017-10-27T00:09:25.083Z,92.42
2017-10-27T00:11:53.364Z,92.96
2017-10-27T00:14:22.911Z,92.82
2017-10-27T00:16:51.184Z,92.19
2017-10-27T00:19:19.520Z,92.72
2017-10-27T00:21:47.847Z,92.28
2017-10-27T00:24:16.133Z,93.81
2017-10-27T00:26:44.424Z,93.29
2017-10-27T00:29:12.753Z,93.31
2017-10-27T00:31:41.043Z,92.54
2017-10-27T00:34:09.324Z,92.00
2017-10-27T00:36:37.620Z,92.07
2017-10-27T00:39:05.900Z,92.39
2017-10-27T00:41:34.198Z,92.74
2017-10-27T00:44:03.256Z,92.72
2017-10-27T00:46:31.553Z,92.71
2017-10-27T00:48:59.884Z,93.59
2017-10-27T00:51:28.164Z,93.36
2017-10-27T00:53:56.452Z,91.94
2017-10-27T00:56:24.744Z,90.62
2017-10-27T00:58:53.033Z,88.30
2017-10-27T01:01:21.310Z,87.06
2017-10-27T01:03:49.598Z,87.30
2017-10-27T01:06:17.893Z,88.21
2017-10-27T01:08:47.057Z,88.73
2017-10-27T01:11:15.377Z,89.37
2017-10-27T01:13:43.677Z,89.99
2017-10-27T01:16:11.956Z,90.03
2017-10-27T01:18:40.255Z,87.07
2017-10-27T01:21:08.560Z,88.22
2017-10-27T01:23:37.644Z,89.57
2017-10-27T01:26:05.930Z,89.99
2017-10-27T01:28:34.985Z,89.92
2017-10-27T01:31:03.265Z,90.01
2017-10-27T01:33:31.557Z,89.60
2017-10-27T01:35:59.900Z,89.97
2017-10-27T01:38:28.200Z,90.37
2017-10-27T01:40:56.481Z,89.86
2017-10-27T01:43:24.776Z,90.05
2017-10-27T01:45:53.064Z,91.04
2017-10-27T01:48:21.353Z,91.33
2017-10-27T01:50:49.657Z,91.20
2017-10-27T01:53:17.942Z,90.24
2017-10-27T01:55:46.216Z,90.58
2017-10-27T01:58:14.495Z,89.28
2017-10-27T02:00:43.653Z,87.63
2017-10-27T02:03:11.937Z,87.97
2017-10-27T02:05:40.236Z,89.35
2017-10-27T02:08:08.536Z,89.53
2017-10-27T02:10:36.826Z,90.62
2017-10-27T02:13:05.109Z,89.23
2017-10-27T02:15:33.384Z,88.93
2017-10-27T02:18:01.686Z,88.84
2017-10-27T02:20:29.967Z,88.53
2017-10-27T02:22:59.052Z,90.62
2017-10-27T02:25:27.392Z,90.49
2017-10-27T02:27:55.701Z,91.65
2017-10-27T02:30:24.751Z,91.13
2017-10-27T02:32:53.024Z,91.83
2017-10-27T02:35:21.358Z,92.67
2017-10-27T02:37:49.666Z,91.71
2017-10-27T02:40:17.957Z,92.70
2017-10-27T02:42:46.232Z,93.87
2017-10-27T02:45:14.564Z,92.69
2017-10-27T02:47:42.873Z,93.10
2017-10-27T02:50:11.153Z,93.44
2017-10-27T02:52:39.430Z,92.50
2017-10-27T02:55:07.704Z,92.65
2017-10-27T02:57:35.979Z,91.95
2017-10-27T03:00:04.249Z,91.71
2017-10-27T03:02:32.543Z,91.00
2017-10-27T03:05:00.820Z,91.47
2017-10-27T03:07:29.092Z,89.72
2017-10-27T03:09:57.387Z,89.70
2017-10-27T03:12:25.671Z,88.97
2017-10-27T03:14:53.949Z,89.20
2017-10-27T03:17:22.233Z,89.71
2017-10-27T03:19:50.508Z,89.59
2017-10-27T03:22:18.802Z,89.52
2017-10-27T03:24:47.864Z,89.43
2017-10-27T03:27:16.152Z,89.12
2017-10-27T03:29:44.441Z,89.72
2017-10-27T03:32:12.725Z,89.69
2017-10-27T03:34:41.216Z,91.03
2017-10-27T03:37:09.635Z,90.05
2017-10-27T03:39:37.921Z,91.39
2017-10-27T03:42:06.227Z,92.05
2017-10-27T03:44:34.539Z,91.83
2017-10-27T03:47:02.832Z,92.11
2017-10-27T03:49:31.124Z,92.53
2017-10-27T03:51:59.476Z,94.35
2017-10-27T03:54:27.760Z,94.42
2017-10-27T03:56:56.057Z,93.64
2017-10-27T03:59:24.688Z,94.75
2017-10-27T04:01:52.972Z,92.59
2017-10-27T04:04:21.257Z,91.67
2017-10-27T04:06:49.532Z,93.23
2017-10-27T04:09:17.829Z,92.04
2017-10-27T04:11:46.101Z,91.63
2017-10-27T04:14:14.390Z,92.98
2017-10-27T04:16:42.680Z,91.81
2017-10-27T04:19:10.972Z,91.10
2017-10-27T04:21:39.313Z,91.19
2017-10-27T04:24:07.589Z,91.97
2017-10-27T04:26:35.868Z,91.60
2017-10-27T04:29:04.147Z,91.15
2017-10-27T04:31:32.425Z,90.96
2017-10-27T04:34:00.708Z,89.21
2017-10-27T04:36:28.984Z,90.04
2017-10-27T04:38:57.255Z,90.16
2017-10-27T04:41:25.571Z,89.29
2017-10-27T04:43:53.856Z,90.35
2017-10-27T04:46:22.148Z,89.05
2017-10-27T04:48:51.197Z,89.60
2017-10-27T04:51:19.480Z,88.37
2017-10-27T04:53:47.768Z,88.31
2017-10-27T04:56:17.289Z,89.11
2017-10-27T04:58:45.589Z,88.78
2017-10-27T05:01:13.941Z,89.37
2017-10-27T05:03:43.042Z,88.93
2017-10-27T05:06:11.320Z,89.59
2017-10-27T05:08:40.376Z,88.16
2017-10-27T05:11:08.821Z,88.50
2017-10-27T05:13:37.333Z,88.08
2017-10-27T05:16:05.613Z,87.83
2017-10-27T05:18:39.301Z,86.62
2017-10-27T05:21:13.132Z,87.03
2017-10-27T05:23:46.766Z,86.89
2017-10-27T05:26:15.061Z,87.68
2017-10-27T05:28:43.357Z,86.51
2017-10-27T05:31:11.660Z,85.98
2017-10-27T05:33:39.944Z,86.58
2017-10-27T05:36:08.238Z,86.32
2017-10-27T05:38:36.501Z,86.45
2017-10-27T05:41:04.773Z,87.38
2017-10-27T05:43:33.034Z,86.33
2017-10-27T05:46:01.313Z,86.43
2017-10-27T05:48:29.609Z,86.25
2017-10-27T05:50:57.881Z,86.64
2017-10-27T05:53:26.174Z,86.54
2017-10-27T05:55:55.236Z,86.51
2017-10-27T05:58:24.094Z,86.06
2017-10-27T06:00:52.374Z,85.84
2017-10-27T06:03:20.669Z,86.29
2017-10-27T06:05:48.972Z,85.29
2017-10-27T06:08:17.261Z,85.55
2017-10-27T06:10:45.537Z,85.22
2017-10-27T06:13:13.821Z,85.10
2017-10-27T06:15:42.914Z,86.65
2017-10-27T06:18:11.206Z,87.73
2017-10-27T06:20:39.485Z,87.45
2017-10-27T06:23:07.772Z,86.56
2017-10-27T06:25:36.051Z,86.79
2017-10-27T06:28:04.376Z,86.01
2017-10-27T06:30:32.623Z,86.14
2017-10-27T06:33:00.902Z,87.27
2017-10-27T06:35:30.428Z,86.94
2017-10-27T06:37:58.739Z,86.28
2017-10-27T06:40:27.024Z,86.79
2017-10-27T06:42:55.307Z,86.63
2017-10-27T06:45:23.583Z,87.34
2017-10-27T06:47:51.873Z,87.94
2017-10-27T06:50:20.153Z,87.35
2017-10-27T06:52:48.446Z,86.85
2017-10-27T06:55:16.733Z,86.97
2017-10-27T06:57:45.033Z,86.29
2017-10-27T07:00:15.017Z,85.51
2017-10-27T07:02:43.302Z,84.80
2017-10-27T07:05:11.608Z,84.79
2017-10-27T07:07:40.670Z,85.73
2017-10-27T07:10:08.954Z,85.39
2017-10-27T07:12:37.240Z,85.60
2017-10-27T07:15:05.520Z,85.16
2017-10-27T07:17:33.797Z,84.58
2017-10-27T07:20:02.086Z,85.07
2017-10-27T07:22:30.382Z,84.87
2017-10-27T07:24:58.687Z,85.22
2017-10-27T07:27:26.981Z,84.43
2017-10-27T07:29:55.301Z,85.53
2017-10-27T07:32:23.625Z,84.81
2017-10-27T07:34:51.908Z,85.24
2017-10-27T07:37:20.234Z,87.45
2017-10-27T07:39:49.295Z,86.76
2017-10-27T07:42:17.605Z,85.07
2017-10-27T07:44:46.691Z,86.27
2017-10-27T07:47:15.008Z,84.69
2017-10-27T07:49:43.288Z,83.60
2017-10-27T07:52:11.587Z,84.61
2017-10-27T07:54:39.888Z,84.03
2017-10-27T07:57:08.168Z,83.95
2017-10-27T07:59:37.217Z,84.31
2017-10-27T08:02:05.504Z,83.76
2017-10-27T08:04:33.784Z,82.84
2017-10-27T08:07:02.092Z,82.19
2017-10-27T08:09:30.391Z,82.75
2017-10-27T08:11:58.681Z,82.29
2017-10-27T08:14:26.972Z,80.75
2017-10-27T08:16:55.273Z,81.38
2017-10-27T08:19:23.552Z,82.04
2017-10-27T08:21:51.832Z,81.08
2017-10-27T08:24:20.126Z,80.30
2017-10-27T08:26:48.421Z,79.97
2017-10-27T08:29:16.710Z,81.05
2017-10-27T08:31:44.997Z,80.18
2017-10-27T08:34:13.282Z,80.71
2017-10-27T08:36:42.192Z,80.42
2017-10-27T08:39:10.877Z,80.67
2017-10-27T08:41:39.157Z,80.01
2017-10-27T08:44:07.489Z,80.36
2017-10-27T08:46:35.773Z,82.22
2017-10-27T08:49:04.059Z,82.15
2017-10-27T08:51:32.460Z,80.93
2017-10-27T08:54:00.722Z,83.71
2017-10-27T08:56:29.004Z,82.85
2017-10-27T08:58:57.280Z,84.25
2017-10-27T09:01:25.564Z,84.16
2017-10-27T09:03:53.876Z,85.04
2017-10-27T09:06:22.165Z,84.74
2017-10-27T09:08:51.214Z,82.18
2017-10-27T09:11:19.496Z,82.10
2017-10-27T09:13:47.792Z,82.29
2017-10-27T09:16:16.084Z,81.45
2017-10-27T09:18:45.132Z,80.32
2017-10-27T09:21:13.408Z,80.27
2017-10-27T09:23:41.700Z,78.85
2017-10-27T09:26:09.993Z,78.38
2017-10-27T09:28:38.257Z,77.82
2017-10-27T09:31:06.544Z,78.31
2017-10-27T09:33:34.825Z,78.93
2017-10-27T09:36:03.116Z,80.31
2017-10-27T09:38:31.412Z,80.34
2017-10-27T09:40:59.697Z,79.51
2017-10-27T09:43:27.984Z,79.87
2017-10-27T09:45:56.261Z,79.67
2017-10-27T09:48:24.580Z,78.16
2017-10-27T09:50:55.765Z,76.55
2017-10-27T09:53:24.043Z,77.82
2017-10-27T09:55:52.328Z,77.79
2017-10-27T09:58:20.608Z,77.85
2017-10-27T10:00:48.893Z,77.07
2017-10-27T10:03:17.188Z,78.50
2017-10-27T10:05:45.468Z,76.94
2017-10-27T10:08:13.753Z,77.88
2017-10-27T10:10:42.048Z,76.69
2017-10-27T10:13:10.336Z,75.91
2017-10-27T10:15:38.626Z,75.34
2017-10-27T10:18:06.908Z,72.29
2017-10-27T10:20:35.199Z,73.19
2017-10-27T10:23:03.482Z,74.18
2017-10-27T10:25:31.763Z,72.97
2017-10-27T10:28:00.031Z,73.15
2017-10-27T10:30:28.316Z,74.92
2017-10-27T10:32:56.589Z,74.31
2017-10-27T10:35:24.872Z,73.14
2017-10-27T10:37:53.164Z,71.75
2017-10-27T10:40:21.452Z,74.12
2017-10-27T10:42:49.730Z,73.45
2017-10-27T10:45:18.020Z,73.58
2017-10-27T10:47:46.304Z,72.33
2017-10-27T10:50:14.582Z,71.77
2017-10-27T10:52:42.880Z,72.68
2017-10-27T10:55:11.164Z,69.87
2017-10-27T10:57:39.456Z,71.21
2017-10-27T11:00:07.740Z,71.70
2017-10-27T11:02:36.886Z,72.20
2017-10-27T11:05:05.164Z,74.33
2017-10-27T11:07:33.453Z,71.07
2017-10-27T11:10:01.744Z,71.79
2017-10-27T11:12:30.029Z,70.66
2017-10-27T11:14:58.304Z,72.38
2017-10-27T11:17:26.586Z,72.03
2017-10-27T11:19:54.868Z,72.90
2017-10-27T11:22:23.161Z,73.35
2017-10-27T11:24:51.436Z,75.21
2017-10-27T11:27:19.712Z,72.98
2017-10-27T11:29:48.758Z,72.07
2017-10-27T11:32:17.032Z,68.14
2017-10-27T11:34:45.308Z,67.87
2017-10-27T11:37:13.584Z,68.76
2017-10-27T11:39:41.867Z,71.48
2017-10-27T11:42:10.154Z,72.01
2017-10-27T11:44:38.432Z,71.84
2017-10-27T11:47:06.720Z,70.91
2017-10-27T11:49:35.012Z,70.25
2017-10-27T11:52:03.344Z,70.13
2017-10-27T11:54:31.625Z,71.59
2017-10-27T11:56:59.908Z,72.29
2017-10-27T11:59:28.201Z,73.31
2017-10-27T12:01:56.485Z,72.94
2017-10-27T12:04:24.765Z,72.83
2017-10-27T12:06:53.048Z,72.72
2017-10-27T12:09:21.335Z,73.64
2017-10-27T12:11:49.620Z,75.35
2017-10-27T12:14:18.744Z,75.95
2017-10-27T12:16:47.025Z,76.35
2017-10-27T12:19:15.317Z,77.51
2017-10-27T12:21:43.597Z,76.62
2017-10-27T12:24:11.892Z,74.53
2017-10-27T12:26:41.228Z,74.13
2017-10-27T12:29:09.515Z,74.30
2017-10-27T12:31:37.810Z,72.35
2017-10-27T12:34:06.110Z,71.06
2017-10-27T12:36:34.403Z,67.62
2017-10-27T12:39:02.682Z,64.39
2017-10-27T12:41:30.964Z,64.37
2017-10-27T12:43:59.254Z,70.09
2017-10-27T12:46:27.544Z,68.33
2017-10-27T12:48:56.592Z,68.76
2017-10-27T12:51:25.557Z,70.97
2017-10-27T12:53:53.833Z,71.79
2017-10-27T12:56:22.113Z,72.76
2017-10-27T12:58:50.405Z,76.79
2017-10-27T13:01:18.680Z,78.78
2017-10-27T13:03:46.942Z,78.75
2017-10-27T13:06:15.210Z,79.92
2017-10-27T13:08:43.487Z,80.90
2017-10-27T13:11:11.756Z,81.90
2017-10-27T13:13:40.038Z,80.11
2017-10-27T13:16:08.290Z,79.99
2017-10-27T13:18:37.337Z,79.16
2017-10-27T13:21:05.605Z,80.38
2017-10-27T13:23:33.889Z,84.27
2017-10-27T13:26:03.056Z,83.61
2017-10-27T13:28:31.332Z,83.02
2017-10-27T13:30:59.612Z,83.71
2017-10-27T13:33:27.977Z,80.44
2017-10-27T13:35:56.270Z,78.15
2017-10-27T13:38:24.565Z,75.19
2017-10-27T13:40:52.845Z,70.48
2017-10-27T13:43:21.127Z,67.14
2017-10-27T13:45:49.417Z,65.41
2017-10-27T13:48:17.688Z,64.79
2017-10-27T13:50:45.961Z,66.25
2017-10-27T13:53:14.249Z,63.98
2017-10-27T13:55:42.536Z,64.42
2017-10-27T13:58:10.822Z,63.64
2017-10-27T14:00:39.872Z,59.33
2017-10-27T14:03:08.156Z,62.05
2017-10-27T14:05:36.434Z,64.32
2017-10-27T14:08:04.714Z,66.75
2017-10-27T14:10:32.988Z,68.79
2017-10-27T14:13:01.277Z,67.10
2017-10-27T14:15:29.593Z,65.14
2017-10-27T14:17:57.877Z,65.14
2017-10-27T14:20:26.156Z,66.22
2017-10-27T14:22:54.433Z,69.26
2017-10-27T14:25:22.721Z,69.77
2017-10-27T14:27:51.005Z,69.60
2017-10-27T14:30:19.288Z,70.87
2017-10-27T14:32:47.570Z,71.69
2017-10-27T14:35:16.666Z,74.28
2017-10-27T14:37:44.942Z,73.58
2017-10-27T14:40:13.227Z,73.06
2017-10-27T14:42:41.505Z,74.31
2017-10-27T14:45:09.800Z,73.30
2017-10-27T14:47:38.851Z,73.57
2017-10-27T14:50:07.134Z,72.82
2017-10-27T14:52:35.411Z,72.73
2017-10-27T14:55:03.687Z,68.73
2017-10-27T14:57:31.964Z,67.20
2017-10-27T15:00:00.240Z,68.97
2017-10-27T15:02:28.522Z,72.51
2017-10-27T15:04:56.804Z,75.04
2017-10-27T15:07:25.116Z,76.43
2017-10-27T15:09:54.166Z,77.25
2017-10-27T15:12:22.440Z,77.59
2017-10-27T15:14:50.745Z,78.53
2017-10-27T15:17:19.034Z,79.25
2017-10-27T15:19:47.312Z,80.02
2017-10-27T15:22:16.357Z,80.53
2017-10-27T15:24:44.626Z,80.95
2017-10-27T15:27:12.895Z,81.14
2017-10-27T15:29:41.172Z,81.50
2017-10-27T15:32:09.459Z,81.91
2017-10-27T15:34:37.743Z,80.98
2017-10-27T15:37:06.020Z,81.40
2017-10-27T15:39:34.298Z,80.81
2017-10-27T15:42:02.564Z,81.63
2017-10-27T15:44:30.844Z,81.86
2017-10-27T15:46:59.133Z,81.86
2017-10-27T15:49:27.588Z,80.88
2017-10-27T15:51:55.869Z,81.46
2017-10-27T15:54:24.155Z,81.83
2017-10-27T15:56:52.614Z,80.87
2017-10-27T15:59:20.905Z,80.70
2017-10-27T16:01:49.193Z,80.82
2017-10-27T16:04:17.496Z,80.13
2017-10-27T16:06:45.793Z,80.03
2017-10-27T16:09:15.344Z,80.21
2017-10-27T16:11:44.525Z,80.72
2017-10-27T16:14:13.499Z,80.45
2017-10-27T16:16:41.786Z,82.18
2017-10-27T16:19:10.067Z,81.88
2017-10-27T16:21:38.357Z,82.06
2017-10-27T16:24:06.629Z,81.93
2017-10-27T16:26:34.912Z,81.78
2017-10-27T16:29:03.229Z,81.91
2017-10-27T16:31:31.520Z,82.48
2017-10-27T16:34:00.581Z,82.95
2017-10-27T16:36:28.864Z,84.83
2017-10-27T16:38:57.174Z,83.80
2017-10-27T16:41:25.506Z,85.59
2017-10-27T16:43:53.800Z,85.53
2017-10-27T16:46:22.086Z,84.88
2017-10-27T16:48:51.141Z,85.72
2017-10-27T16:51:19.437Z,85.73
2017-10-27T16:53:47.734Z,85.83
2017-10-27T16:56:16.017Z,83.79
2017-10-27T16:58:45.785Z,83.49
2017-10-27T17:01:14.469Z,83.90
2017-10-27T17:03:42.753Z,83.94
2017-10-27T17:06:11.050Z,84.21
2017-10-27T17:08:39.333Z,83.06
2017-10-27T17:11:07.608Z,84.03
2017-10-27T17:13:35.899Z,84.17
2017-10-27T17:16:04.190Z,84.47
2017-10-27T17:18:32.477Z,84.40
2017-10-27T17:21:00.761Z,84.24
2017-10-27T17:23:29.044Z,84.88
2017-10-27T17:25:57.337Z,84.78
2017-10-27T17:28:25.631Z,84.65
2017-10-27T17:30:53.921Z,83.83
2017-10-27T17:33:22.217Z,83.23
2017-10-27T17:35:51.253Z,84.19
2017-10-27T17:38:19.536Z,83.68
2017-10-27T17:40:47.829Z,83.79
2017-10-27T17:43:16.130Z,83.61
2017-10-27T17:45:44.421Z,84.13
2017-10-27T17:48:12.724Z,82.87
2017-10-27T17:50:41.009Z,83.49
2017-10-27T17:53:09.300Z,83.61
2017-10-27T17:55:37.580Z,83.71
2017-10-27T17:58:05.872Z,82.93
2017-10-27T18:00:34.169Z,83.32
2017-10-27T18:03:02.456Z,83.38
2017-10-27T18:05:30.761Z,83.55
2017-10-27T18:07:59.061Z,84.04
2017-10-27T18:10:27.378Z,83.87
2017-10-27T18:12:55.662Z,83.51
2017-10-27T18:15:23.940Z,84.16
2017-10-27T18:17:52.282Z,83.76
2017-10-27T18:20:20.585Z,81.92
2017-10-27T18:22:48.975Z,81.50
2017-10-27T18:25:17.341Z,81.58
2017-10-27T18:27:45.861Z,81.76
2017-10-27T18:30:14.683Z,81.47
2017-10-27T18:32:44.077Z,81.30
2017-10-27T18:35:13.353Z,81.50
2017-10-27T18:37:42.946Z,81.85
2017-10-27T18:40:12.595Z,83.05
2017-10-27T18:42:42.302Z,83.75
2017-10-27T18:45:11.991Z,83.88
2017-10-27T18:47:41.776Z,85.30
2017-10-27T18:50:12.327Z,85.70
2017-10-27T18:52:42.033Z,85.85
2017-10-27T18:55:11.811Z,85.54
2017-10-27T18:57:42.913Z,86.05
2017-10-27T19:00:12.669Z,85.83
2017-10-27T19:02:42.525Z,86.13
2017-10-27T19:05:13.818Z,85.98
2017-10-27T19:07:43.522Z,85.84
2017-10-27T19:10:13.765Z,86.76
2017-10-27T19:12:44.315Z,86.38
2017-10-27T19:15:14.157Z,86.86
2017-10-27T19:17:43.971Z,87.78
2017-10-27T19:20:13.834Z,87.84
2017-10-27T19:22:43.557Z,87.59
2017-10-27T19:25:13.392Z,87.52
2017-10-27T19:27:43.226Z,87.81
2017-10-27T19:30:13.059Z,87.54
2017-10-27T19:32:42.812Z,87.61
2017-10-27T19:35:12.605Z,87.54
2017-10-27T19:37:43.308Z,87.06
2017-10-27T19:40:13.250Z,87.55
2017-10-27T19:42:43.078Z,87.19
2017-10-27T19:45:13.638Z,87.71
2017-10-27T19:47:43.501Z,86.13
2017-10-27T19:50:13.287Z,85.70
2017-10-27T19:52:43.067Z,85.33
2017-10-27T19:55:12.758Z,85.02
2017-10-27T19:57:42.573Z,85.09
2017-10-27T20:00:12.304Z,85.90
2017-10-27T20:02:42.176Z,84.09
2017-10-27T20:05:11.857Z,83.87
2017-10-27T20:07:41.664Z,84.04
2017-10-27T20:10:11.557Z,83.06
2017-10-27T20:12:41.376Z,83.55
2017-10-27T20:15:11.184Z,82.88
2017-10-27T20:17:40.915Z,82.41
2017-10-27T20:20:10.664Z,82.33
2017-10-27T20:22:39.530Z,82.64
2017-10-27T20:25:14.139Z,80.59
2017-10-27T20:30:27.836Z,80.75
2017-10-27T20:33:07.875Z,81.63
2017-10-27T20:35:36.176Z,82.06
2017-10-27T20:38:11.006Z,81.51
2017-10-27T20:43:24.734Z,82.15
2017-10-27T20:45:53.020Z,81.56
2017-10-27T20:48:21.311Z,81.46
2017-10-27T20:50:55.317Z,81.36
2017-10-27T20:53:29.509Z,81.15
2017-10-27T20:55:57.813Z,81.23
2017-10-27T20:58:26.110Z,80.47
2017-10-27T21:00:54.403Z,81.23
2017-10-27T21:03:22.676Z,81.66
2017-10-27T21:05:50.990Z,81.61
2017-10-27T21:08:19.272Z,81.17
2017-10-27T21:10:47.562Z,81.74
2017-10-27T21:13:15.860Z,80.45
2017-10-27T21:15:44.140Z,79.75
2017-10-27T21:18:12.425Z,79.06
2017-10-27T21:20:40.713Z,79.04
2017-10-27T21:23:08.989Z,79.17
2017-10-27T21:25:37.262Z,79.72
2017-10-27T21:28:06.219Z,79.56
2017-10-27T21:30:34.489Z,80.83
2017-10-27T21:33:02.765Z,80.25
2017-10-27T21:35:31.353Z,80.32
2017-10-27T21:37:59.669Z,80.36
2017-10-27T21:40:27.953Z,80.74
2017-10-27T21:42:56.234Z,81.56
2017-10-27T21:45:24.508Z,80.28
2017-10-27T21:47:52.779Z,80.25
2017-10-27T21:50:21.063Z,81.21
2017-10-27T21:52:49.331Z,83.36
2017-10-27T21:55:17.610Z,84.85
2017-10-27T21:57:45.896Z,83.17
2017-10-27T22:00:14.356Z,82.45
2017-10-27T22:02:42.623Z,81.88
2017-10-27T22:05:10.904Z,82.65
2017-10-27T22:07:39.181Z,84.10
2017-10-27T22:10:07.467Z,85.08
2017-10-27T22:12:35.767Z,84.99
2017-10-27T22:15:04.823Z,86.76
2017-10-27T22:17:33.103Z,86.69
2017-10-27T22:20:01.376Z,87.80
2017-10-27T22:22:29.659Z,87.54
2017-10-27T22:24:57.931Z,87.56
2017-10-27T22:27:26.209Z,87.61
2017-10-27T22:29:54.479Z,86.47
2017-10-27T22:32:22.751Z,86.23
2017-10-27T22:34:51.028Z,85.88
2017-10-27T22:37:19.350Z,85.21
2017-10-27T22:39:47.634Z,84.76
2017-10-27T22:42:16.674Z,84.51
2017-10-27T22:44:45.657Z,84.94
2017-10-27T22:47:13.933Z,84.86
2017-10-27T22:49:42.235Z,83.61
2017-10-27T22:52:10.528Z,83.87
2017-10-27T22:54:38.821Z,82.71
2017-10-27T22:57:07.868Z,83.07
2017-10-27T22:59:36.157Z,82.94
2017-10-27T23:02:04.451Z,82.69
2017-10-27T23:04:32.737Z,81.95
2017-10-27T23:07:01.025Z,82.57
2017-10-27T23:09:30.068Z,81.83
2017-10-27T23:11:58.345Z,81.99
2017-10-27T23:14:26.629Z,81.09
2017-10-27T23:16:54.913Z,81.95
2017-10-27T23:19:23.201Z,81.25
2017-10-27T23:21:51.489Z,82.85
2017-10-27T23:24:19.781Z,82.77
2017-10-27T23:26:48.067Z,82.19
2017-10-27T23:29:16.355Z,81.71
2017-10-27T23:31:44.634Z,81.09
2017-10-27T23:34:12.914Z,80.43
2017-10-27T23:36:41.181Z,81.30
2017-10-27T23:39:09.466Z,80.80
2017-10-27T23:41:37.743Z,80.73
2017-10-27T23:44:06.014Z,79.99
2017-10-27T23:46:34.288Z,80.40
2017-10-27T23:49:02.583Z,80.67
2017-10-27T23:51:30.868Z,80.97
2017-10-27T23:53:59.147Z,80.54
2017-10-27T23:56:27.428Z,80.41
2017-10-27T23:58:55.709Z,80.58
